sensor_id;sensor_type;location;lat;lon;timestamp;temperature;humidity
25741;DHT22;13592;50.838;4.412;2022-07-18T00:01:48;23.30;62.50
25741;DHT22;13592;50.838;4.412;2022-07-18T00:04:14;23.30;62.00
25741;DHT22;13592;50.838;4.412;2022-07-18T00:06:39;23.30;61.80
25741;DHT22;13592;50.838;4.412;2022-07-18T00:09:05;23.20;62.00
25741;DHT22;13592;50.838;4.412;2022-07-18T00:11:30;23.10;61.80
25741;DHT22;13592;50.838;4.412;2022-07-18T00:13:56;23.00;62.50
25741;DHT22;13592;50.838;4.412;2022-07-18T00:16:21;23.00;62.20
25741;DHT22;13592;50.838;4.412;2022-07-18T00:18:48;23.10;61.80
25741;DHT22;13592;50.838;4.412;2022-07-18T00:21:17;23.10;61.20
25741;DHT22;13592;50.838;4.412;2022-07-18T00:23:43;22.90;62.70
25741;DHT22;13592;50.838;4.412;2022-07-18T00:26:09;22.90;62.90
25741;DHT22;13592;50.838;4.412;2022-07-18T00:28:34;23.00;62.90
25741;DHT22;13592;50.838;4.412;2022-07-18T00:31:01;22.90;63.40
25741;DHT22;13592;50.838;4.412;2022-07-18T00:33:26;23.00;63.20
25741;DHT22;13592;50.838;4.412;2022-07-18T00:35:52;22.80;63.50
25741;DHT22;13592;50.838;4.412;2022-07-18T00:38:17;22.70;63.90
25741;DHT22;13592;50.838;4.412;2022-07-18T00:40:43;22.90;62.90
25741;DHT22;13592;50.838;4.412;2022-07-18T00:43:11;22.90;63.50
25741;DHT22;13592;50.838;4.412;2022-07-18T00:45:37;22.90;62.70
25741;DHT22;13592;50.838;4.412;2022-07-18T00:48:06;22.90;63.00
25741;DHT22;13592;50.838;4.412;2022-07-18T00:50:31;22.90;63.30
25741;DHT22;13592;50.838;4.412;2022-07-18T00:52:57;22.90;63.00
25741;DHT22;13592;50.838;4.412;2022-07-18T00:55:22;22.80;63.60
25741;DHT22;13592;50.838;4.412;2022-07-18T00:57:48;22.80;64.10
25741;DHT22;13592;50.838;4.412;2022-07-18T01:00:14;22.70;63.40
25741;DHT22;13592;50.838;4.412;2022-07-18T01:02:59;22.60;64.00
25741;DHT22;13592;50.838;4.412;2022-07-18T01:05:25;22.70;63.70
25741;DHT22;13592;50.838;4.412;2022-07-18T01:07:50;22.70;63.30
25741;DHT22;13592;50.838;4.412;2022-07-18T01:10:19;22.60;63.60
25741;DHT22;13592;50.838;4.412;2022-07-18T01:12:45;22.60;63.40
25741;DHT22;13592;50.838;4.412;2022-07-18T01:15:11;22.50;63.20
25741;DHT22;13592;50.838;4.412;2022-07-18T01:17:37;22.50;62.90
25741;DHT22;13592;50.838;4.412;2022-07-18T01:20:03;22.50;63.60
25741;DHT22;13592;50.838;4.412;2022-07-18T01:22:29;22.50;63.80
25741;DHT22;13592;50.838;4.412;2022-07-18T01:24:55;22.60;63.20
25741;DHT22;13592;50.838;4.412;2022-07-18T01:27:21;22.60;64.20
25741;DHT22;13592;50.838;4.412;2022-07-18T01:29:47;22.60;63.10
25741;DHT22;13592;50.838;4.412;2022-07-18T01:32:13;22.60;63.00
25741;DHT22;13592;50.838;4.412;2022-07-18T01:34:40;22.60;63.40
25741;DHT22;13592;50.838;4.412;2022-07-18T01:37:06;22.50;63.90
25741;DHT22;13592;50.838;4.412;2022-07-18T01:39:32;22.50;63.90
25741;DHT22;13592;50.838;4.412;2022-07-18T01:42:01;22.60;63.40
25741;DHT22;13592;50.838;4.412;2022-07-18T01:44:39;22.70;63.20
25741;DHT22;13592;50.838;4.412;2022-07-18T01:47:07;22.50;63.00
25741;DHT22;13592;50.838;4.412;2022-07-18T01:49:33;22.40;63.70
25741;DHT22;13592;50.838;4.412;2022-07-18T01:51:58;22.40;63.40
25741;DHT22;13592;50.838;4.412;2022-07-18T01:54:27;22.30;64.30
25741;DHT22;13592;50.838;4.412;2022-07-18T01:56:53;22.40;64.00
25741;DHT22;13592;50.838;4.412;2022-07-18T01:59:19;22.30;64.20
25741;DHT22;13592;50.838;4.412;2022-07-18T02:01:44;22.20;64.40
25741;DHT22;13592;50.838;4.412;2022-07-18T02:04:10;22.30;64.70
25741;DHT22;13592;50.838;4.412;2022-07-18T02:06:35;22.40;64.60
25741;DHT22;13592;50.838;4.412;2022-07-18T02:09:01;22.30;65.00
25741;DHT22;13592;50.838;4.412;2022-07-18T02:11:27;22.30;63.80
25741;DHT22;13592;50.838;4.412;2022-07-18T02:13:52;22.30;65.00
25741;DHT22;13592;50.838;4.412;2022-07-18T02:16:19;22.10;65.30
25741;DHT22;13592;50.838;4.412;2022-07-18T02:18:45;22.00;66.40
25741;DHT22;13592;50.838;4.412;2022-07-18T02:21:10;21.90;65.90
25741;DHT22;13592;50.838;4.412;2022-07-18T02:23:36;22.00;65.90
25741;DHT22;13592;50.838;4.412;2022-07-18T02:26:02;22.10;65.50
25741;DHT22;13592;50.838;4.412;2022-07-18T02:28:27;22.00;65.10
25741;DHT22;13592;50.838;4.412;2022-07-18T02:30:53;22.10;64.60
25741;DHT22;13592;50.838;4.412;2022-07-18T02:33:18;22.00;64.80
25741;DHT22;13592;50.838;4.412;2022-07-18T02:35:44;21.90;65.20
25741;DHT22;13592;50.838;4.412;2022-07-18T02:38:09;22.00;64.20
25741;DHT22;13592;50.838;4.412;2022-07-18T02:40:35;22.10;64.40
25741;DHT22;13592;50.838;4.412;2022-07-18T02:43:01;22.00;64.10
25741;DHT22;13592;50.838;4.412;2022-07-18T02:45:27;22.00;63.10
25741;DHT22;13592;50.838;4.412;2022-07-18T02:47:52;22.00;63.90
25741;DHT22;13592;50.838;4.412;2022-07-18T02:50:18;21.90;64.40
25741;DHT22;13592;50.838;4.412;2022-07-18T02:52:44;22.00;64.10
25741;DHT22;13592;50.838;4.412;2022-07-18T02:55:10;22.00;63.90
25741;DHT22;13592;50.838;4.412;2022-07-18T02:57:36;22.00;64.20
25741;DHT22;13592;50.838;4.412;2022-07-18T03:00:05;22.10;63.50
25741;DHT22;13592;50.838;4.412;2022-07-18T03:02:35;22.20;63.30
25741;DHT22;13592;50.838;4.412;2022-07-18T03:05:01;22.20;64.30
25741;DHT22;13592;50.838;4.412;2022-07-18T03:07:26;22.00;64.70
25741;DHT22;13592;50.838;4.412;2022-07-18T03:09:52;22.10;64.40
25741;DHT22;13592;50.838;4.412;2022-07-18T03:12:17;22.20;63.50
25741;DHT22;13592;50.838;4.412;2022-07-18T03:14:45;22.40;62.30
25741;DHT22;13592;50.838;4.412;2022-07-18T03:17:10;22.40;62.40
25741;DHT22;13592;50.838;4.412;2022-07-18T03:19:36;22.10;63.10
25741;DHT22;13592;50.838;4.412;2022-07-18T03:22:03;21.90;63.90
25741;DHT22;13592;50.838;4.412;2022-07-18T03:24:30;21.80;63.60
25741;DHT22;13592;50.838;4.412;2022-07-18T03:26:56;21.90;63.30
25741;DHT22;13592;50.838;4.412;2022-07-18T03:29:22;21.80;63.60
25741;DHT22;13592;50.838;4.412;2022-07-18T03:31:48;21.70;63.50
25741;DHT22;13592;50.838;4.412;2022-07-18T03:34:13;21.60;65.20
25741;DHT22;13592;50.838;4.412;2022-07-18T03:36:39;21.50;65.30
25741;DHT22;13592;50.838;4.412;2022-07-18T03:39:07;21.50;65.40
25741;DHT22;13592;50.838;4.412;2022-07-18T03:41:33;21.60;64.40
25741;DHT22;13592;50.838;4.412;2022-07-18T03:43:59;21.50;65.30
25741;DHT22;13592;50.838;4.412;2022-07-18T03:46:27;21.40;65.40
25741;DHT22;13592;50.838;4.412;2022-07-18T03:48:56;21.40;66.50
25741;DHT22;13592;50.838;4.412;2022-07-18T03:51:27;21.40;66.90
25741;DHT22;13592;50.838;4.412;2022-07-18T03:53:54;21.50;66.50
25741;DHT22;13592;50.838;4.412;2022-07-18T03:56:23;21.40;66.90
25741;DHT22;13592;50.838;4.412;2022-07-18T03:58:48;21.40;66.90
25741;DHT22;13592;50.838;4.412;2022-07-18T04:01:15;21.60;66.50
25741;DHT22;13592;50.838;4.412;2022-07-18T04:03:42;21.60;66.30
25741;DHT22;13592;50.838;4.412;2022-07-18T04:06:15;21.60;66.50
25741;DHT22;13592;50.838;4.412;2022-07-18T04:08:42;21.70;66.00
25741;DHT22;13592;50.838;4.412;2022-07-18T04:11:11;21.90;66.00
25741;DHT22;13592;50.838;4.412;2022-07-18T04:13:37;21.70;65.70
25741;DHT22;13592;50.838;4.412;2022-07-18T04:16:04;21.70;66.10
25741;DHT22;13592;50.838;4.412;2022-07-18T04:18:30;22.10;63.20
25741;DHT22;13592;50.838;4.412;2022-07-18T04:20:58;22.10;64.20
25741;DHT22;13592;50.838;4.412;2022-07-18T04:26:03;21.70;65.70
25741;DHT22;13592;50.838;4.412;2022-07-18T04:28:30;21.60;66.00
25741;DHT22;13592;50.838;4.412;2022-07-18T04:30:57;21.90;65.40
25741;DHT22;13592;50.838;4.412;2022-07-18T04:33:22;21.70;65.70
25741;DHT22;13592;50.838;4.412;2022-07-18T04:35:48;21.70;65.80
25741;DHT22;13592;50.838;4.412;2022-07-18T04:38:15;21.80;66.00
25741;DHT22;13592;50.838;4.412;2022-07-18T04:40:42;21.60;65.70
25741;DHT22;13592;50.838;4.412;2022-07-18T04:43:11;21.60;66.30
25741;DHT22;13592;50.838;4.412;2022-07-18T04:45:38;21.70;65.80
25741;DHT22;13592;50.838;4.412;2022-07-18T04:48:04;21.70;66.00
25741;DHT22;13592;50.838;4.412;2022-07-18T04:50:30;21.80;66.00
25741;DHT22;13592;50.838;4.412;2022-07-18T04:52:59;21.70;66.40
25741;DHT22;13592;50.838;4.412;2022-07-18T04:55:28;21.70;66.40
25741;DHT22;13592;50.838;4.412;2022-07-18T04:57:56;21.60;66.70
25741;DHT22;13592;50.838;4.412;2022-07-18T05:00:24;21.90;65.50
25741;DHT22;13592;50.838;4.412;2022-07-18T05:02:52;22.10;65.20
25741;DHT22;13592;50.838;4.412;2022-07-18T05:05:32;22.10;66.00
25741;DHT22;13592;50.838;4.412;2022-07-18T05:07:59;21.90;65.60
25741;DHT22;13592;50.838;4.412;2022-07-18T05:10:25;22.00;65.70
25741;DHT22;13592;50.838;4.412;2022-07-18T05:12:51;22.30;62.70
25741;DHT22;13592;50.838;4.412;2022-07-18T05:15:23;22.40;64.20
25741;DHT22;13592;50.838;4.412;2022-07-18T05:17:53;22.30;63.10
25741;DHT22;13592;50.838;4.412;2022-07-18T05:20:29;22.30;63.50
25741;DHT22;13592;50.838;4.412;2022-07-18T05:22:56;22.10;63.30
25741;DHT22;13592;50.838;4.412;2022-07-18T05:25:26;22.10;63.60
25741;DHT22;13592;50.838;4.412;2022-07-18T05:27:53;22.10;64.10
25741;DHT22;13592;50.838;4.412;2022-07-18T05:30:18;22.10;65.20
25741;DHT22;13592;50.838;4.412;2022-07-18T05:32:44;22.20;64.10
25741;DHT22;13592;50.838;4.412;2022-07-18T05:35:12;22.30;65.30
25741;DHT22;13592;50.838;4.412;2022-07-18T05:37:39;22.40;63.60
25741;DHT22;13592;50.838;4.412;2022-07-18T05:40:07;22.40;63.30
25741;DHT22;13592;50.838;4.412;2022-07-18T05:42:33;22.50;64.40
25741;DHT22;13592;50.838;4.412;2022-07-18T05:44:58;22.60;64.10
25741;DHT22;13592;50.838;4.412;2022-07-18T05:47:24;22.60;64.60
25741;DHT22;13592;50.838;4.412;2022-07-18T05:49:50;22.60;64.30
25741;DHT22;13592;50.838;4.412;2022-07-18T05:52:16;23.10;62.40
25741;DHT22;13592;50.838;4.412;2022-07-18T05:54:42;23.00;63.50
25741;DHT22;13592;50.838;4.412;2022-07-18T05:57:08;22.90;64.00
25741;DHT22;13592;50.838;4.412;2022-07-18T05:59:34;23.00;65.00
25741;DHT22;13592;50.838;4.412;2022-07-18T06:02:00;23.00;64.90
25741;DHT22;13592;50.838;4.412;2022-07-18T06:04:26;23.00;65.10
25741;DHT22;13592;50.838;4.412;2022-07-18T06:06:51;23.20;64.50
25741;DHT22;13592;50.838;4.412;2022-07-18T06:09:17;23.30;64.00
25741;DHT22;13592;50.838;4.412;2022-07-18T06:11:43;23.30;65.00
25741;DHT22;13592;50.838;4.412;2022-07-18T06:14:10;23.30;64.50
25741;DHT22;13592;50.838;4.412;2022-07-18T06:16:35;23.40;64.00
25741;DHT22;13592;50.838;4.412;2022-07-18T06:19:01;23.50;63.70
25741;DHT22;13592;50.838;4.412;2022-07-18T06:21:27;23.30;70.60
25741;DHT22;13592;50.838;4.412;2022-07-18T06:23:53;22.90;68.70
25741;DHT22;13592;50.838;4.412;2022-07-18T06:26:18;22.60;73.00
25741;DHT22;13592;50.838;4.412;2022-07-18T06:28:44;22.60;72.90
25741;DHT22;13592;50.838;4.412;2022-07-18T06:31:10;22.80;67.70
25741;DHT22;13592;50.838;4.412;2022-07-18T06:33:37;23.20;64.30
25741;DHT22;13592;50.838;4.412;2022-07-18T06:36:02;23.40;65.40
25741;DHT22;13592;50.838;4.412;2022-07-18T06:38:28;23.50;65.10
25741;DHT22;13592;50.838;4.412;2022-07-18T06:40:54;23.60;67.60
25741;DHT22;13592;50.838;4.412;2022-07-18T06:43:21;23.80;69.10
25741;DHT22;13592;50.838;4.412;2022-07-18T06:45:47;23.90;69.60
25741;DHT22;13592;50.838;4.412;2022-07-18T06:48:16;24.10;68.00
25741;DHT22;13592;50.838;4.412;2022-07-18T06:50:41;24.30;63.80
25741;DHT22;13592;50.838;4.412;2022-07-18T06:53:07;24.50;63.50
25741;DHT22;13592;50.838;4.412;2022-07-18T06:55:32;24.80;60.30
25741;DHT22;13592;50.838;4.412;2022-07-18T06:57:58;25.00;58.20
25741;DHT22;13592;50.838;4.412;2022-07-18T07:00:24;25.30;58.00
25741;DHT22;13592;50.838;4.412;2022-07-18T07:02:49;25.40;57.90
25741;DHT22;13592;50.838;4.412;2022-07-18T07:05:15;25.50;57.10
25741;DHT22;13592;50.838;4.412;2022-07-18T07:07:42;25.70;57.40
25741;DHT22;13592;50.838;4.412;2022-07-18T07:10:08;26.00;56.50
25741;DHT22;13592;50.838;4.412;2022-07-18T07:12:42;26.40;56.80
25741;DHT22;13592;50.838;4.412;2022-07-18T07:15:09;26.80;56.50
25741;DHT22;13592;50.838;4.412;2022-07-18T07:17:35;27.50;54.90
25741;DHT22;13592;50.838;4.412;2022-07-18T07:20:03;28.10;53.30
25741;DHT22;13592;50.838;4.412;2022-07-18T07:22:29;28.60;53.70
25741;DHT22;13592;50.838;4.412;2022-07-18T07:24:54;29.20;53.00
25741;DHT22;13592;50.838;4.412;2022-07-18T07:27:20;29.80;51.20
25741;DHT22;13592;50.838;4.412;2022-07-18T07:29:45;30.40;48.70
25741;DHT22;13592;50.838;4.412;2022-07-18T07:32:11;30.90;50.80
25741;DHT22;13592;50.838;4.412;2022-07-18T07:34:36;31.30;46.00
25741;DHT22;13592;50.838;4.412;2022-07-18T07:37:02;31.80;46.40
25741;DHT22;13592;50.838;4.412;2022-07-18T07:39:27;32.40;45.20
25741;DHT22;13592;50.838;4.412;2022-07-18T07:41:53;32.90;44.70
25741;DHT22;13592;50.838;4.412;2022-07-18T07:44:19;33.60;42.20
25741;DHT22;13592;50.838;4.412;2022-07-18T07:46:45;34.20;41.90
25741;DHT22;13592;50.838;4.412;2022-07-18T07:49:11;35.00;40.30
25741;DHT22;13592;50.838;4.412;2022-07-18T07:51:39;35.80;39.10
25741;DHT22;13592;50.838;4.412;2022-07-18T07:54:04;36.50;38.50
25741;DHT22;13592;50.838;4.412;2022-07-18T07:56:33;37.40;36.10
25741;DHT22;13592;50.838;4.412;2022-07-18T07:58:58;38.10;36.50
25741;DHT22;13592;50.838;4.412;2022-07-18T08:01:26;38.80;36.50
25741;DHT22;13592;50.838;4.412;2022-07-18T08:03:52;39.80;34.00
25741;DHT22;13592;50.838;4.412;2022-07-18T08:06:18;40.60;32.80
25741;DHT22;13592;50.838;4.412;2022-07-18T08:08:44;41.50;31.70
25741;DHT22;13592;50.838;4.412;2022-07-18T08:11:09;42.10;31.50
25741;DHT22;13592;50.838;4.412;2022-07-18T08:13:36;43.20;30.20
25741;DHT22;13592;50.838;4.412;2022-07-18T08:16:08;43.90;30.00
25741;DHT22;13592;50.838;4.412;2022-07-18T08:18:34;44.50;28.90
25741;DHT22;13592;50.838;4.412;2022-07-18T08:21:00;44.90;28.30
25741;DHT22;13592;50.838;4.412;2022-07-18T08:23:27;45.00;27.60
25741;DHT22;13592;50.838;4.412;2022-07-18T08:25:52;45.10;27.60
25741;DHT22;13592;50.838;4.412;2022-07-18T08:28:19;45.80;27.30
25741;DHT22;13592;50.838;4.412;2022-07-18T08:30:46;46.20;26.10
25741;DHT22;13592;50.838;4.412;2022-07-18T08:33:14;46.50;26.40
25741;DHT22;13592;50.838;4.412;2022-07-18T08:35:40;46.90;27.00
25741;DHT22;13592;50.838;4.412;2022-07-18T08:38:07;47.40;27.30
25741;DHT22;13592;50.838;4.412;2022-07-18T08:40:33;47.70;26.20
25741;DHT22;13592;50.838;4.412;2022-07-18T08:43:00;48.10;25.30
25741;DHT22;13592;50.838;4.412;2022-07-18T08:45:26;48.30;26.30
25741;DHT22;13592;50.838;4.412;2022-07-18T08:47:51;48.30;26.80
25741;DHT22;13592;50.838;4.412;2022-07-18T08:50:17;48.10;25.60
25741;DHT22;13592;50.838;4.412;2022-07-18T08:52:45;48.00;25.10
25741;DHT22;13592;50.838;4.412;2022-07-18T08:55:11;47.80;25.60
25741;DHT22;13592;50.838;4.412;2022-07-18T08:57:37;48.00;24.80
25741;DHT22;13592;50.838;4.412;2022-07-18T09:00:04;47.90;24.80
25741;DHT22;13592;50.838;4.412;2022-07-18T09:02:29;47.80;24.40
25741;DHT22;13592;50.838;4.412;2022-07-18T09:04:55;48.10;25.30
25741;DHT22;13592;50.838;4.412;2022-07-18T09:10:14;48.70;25.60
25741;DHT22;13592;50.838;4.412;2022-07-18T09:12:56;48.40;25.50
25741;DHT22;13592;50.838;4.412;2022-07-18T09:15:22;48.10;25.80
25741;DHT22;13592;50.838;4.412;2022-07-18T09:17:49;47.50;24.40
25741;DHT22;13592;50.838;4.412;2022-07-18T09:20:14;47.10;25.60
25741;DHT22;13592;50.838;4.412;2022-07-18T09:22:42;46.50;26.00
25741;DHT22;13592;50.838;4.412;2022-07-18T09:25:09;47.00;25.70
25741;DHT22;13592;50.838;4.412;2022-07-18T09:27:44;47.70;25.30
25741;DHT22;13592;50.838;4.412;2022-07-18T09:30:26;47.70;24.10
25741;DHT22;13592;50.838;4.412;2022-07-18T09:32:53;48.10;24.30
25741;DHT22;13592;50.838;4.412;2022-07-18T09:35:26;48.10;24.80
25741;DHT22;13592;50.838;4.412;2022-07-18T09:40:19;47.70;24.50
25741;DHT22;13592;50.838;4.412;2022-07-18T09:42:49;47.70;23.90
25741;DHT22;13592;50.838;4.412;2022-07-18T09:45:15;47.30;24.10
25741;DHT22;13592;50.838;4.412;2022-07-18T09:47:57;47.80;24.80
25741;DHT22;13592;50.838;4.412;2022-07-18T09:50:27;47.80;23.70
25741;DHT22;13592;50.838;4.412;2022-07-18T09:53:12;47.10;24.30
25741;DHT22;13592;50.838;4.412;2022-07-18T09:55:42;46.80;24.50
25741;DHT22;13592;50.838;4.412;2022-07-18T09:58:08;46.20;25.20
25741;DHT22;13592;50.838;4.412;2022-07-18T10:00:34;45.30;24.90
25741;DHT22;13592;50.838;4.412;2022-07-18T10:03:00;44.50;25.40
25741;DHT22;13592;50.838;4.412;2022-07-18T10:05:27;44.10;26.50
25741;DHT22;13592;50.838;4.412;2022-07-18T10:07:54;44.00;25.80
25741;DHT22;13592;50.838;4.412;2022-07-18T10:10:20;44.30;26.80
25741;DHT22;13592;50.838;4.412;2022-07-18T10:12:46;45.10;25.30
25741;DHT22;13592;50.838;4.412;2022-07-18T10:15:12;45.40;24.70
25741;DHT22;13592;50.838;4.412;2022-07-18T10:17:39;45.70;26.00
25741;DHT22;13592;50.838;4.412;2022-07-18T10:20:05;46.20;24.70
25741;DHT22;13592;50.838;4.412;2022-07-18T10:22:41;46.70;25.40
25741;DHT22;13592;50.838;4.412;2022-07-18T10:25:09;46.90;25.00
25741;DHT22;13592;50.838;4.412;2022-07-18T10:27:53;46.20;26.10
25741;DHT22;13592;50.838;4.412;2022-07-18T10:30:29;45.50;25.60
25741;DHT22;13592;50.838;4.412;2022-07-18T10:32:55;44.80;25.40
25741;DHT22;13592;50.838;4.412;2022-07-18T10:35:57;44.20;26.90
25741;DHT22;13592;50.838;4.412;2022-07-18T10:38:21;44.00;28.60
25741;DHT22;13592;50.838;4.412;2022-07-18T10:45:56;44.40;25.30
25741;DHT22;13592;50.838;4.412;2022-07-18T10:51:06;45.10;25.40
25741;DHT22;13592;50.838;4.412;2022-07-18T10:56:16;44.90;25.20
25741;DHT22;13592;50.838;4.412;2022-07-18T10:58:42;44.10;25.20
25741;DHT22;13592;50.838;4.412;2022-07-18T11:01:13;43.60;25.30
25741;DHT22;13592;50.838;4.412;2022-07-18T11:03:43;43.30;25.80
25741;DHT22;13592;50.838;4.412;2022-07-18T11:06:11;43.10;26.50
25741;DHT22;13592;50.838;4.412;2022-07-18T11:08:37;43.60;25.80
25741;DHT22;13592;50.838;4.412;2022-07-18T11:11:03;44.10;25.20
25741;DHT22;13592;50.838;4.412;2022-07-18T11:13:36;44.70;26.10
25741;DHT22;13592;50.838;4.412;2022-07-18T11:18:32;44.80;25.60
25741;DHT22;13592;50.838;4.412;2022-07-18T11:20:58;44.10;25.50
25741;DHT22;13592;50.838;4.412;2022-07-18T11:23:24;43.30;26.40
25741;DHT22;13592;50.838;4.412;2022-07-18T11:25:51;42.90;27.20
25741;DHT22;13592;50.838;4.412;2022-07-18T11:28:17;42.90;25.50
25741;DHT22;13592;50.838;4.412;2022-07-18T11:30:44;42.30;25.40
25741;DHT22;13592;50.838;4.412;2022-07-18T11:33:23;41.20;25.90
25741;DHT22;13592;50.838;4.412;2022-07-18T11:35:49;40.20;27.10
25741;DHT22;13592;50.838;4.412;2022-07-18T11:38:15;38.90;28.40
25741;DHT22;13592;50.838;4.412;2022-07-18T11:40:47;38.40;28.10
25741;DHT22;13592;50.838;4.412;2022-07-18T11:43:19;37.90;28.70
25741;DHT22;13592;50.838;4.412;2022-07-18T11:45:44;37.60;28.70
25741;DHT22;13592;50.838;4.412;2022-07-18T11:48:09;37.30;30.30
25741;DHT22;13592;50.838;4.412;2022-07-18T11:50:36;37.00;31.70
25741;DHT22;13592;50.838;4.412;2022-07-18T11:53:02;36.70;31.20
25741;DHT22;13592;50.838;4.412;2022-07-18T11:55:37;36.40;31.60
25741;DHT22;13592;50.838;4.412;2022-07-18T11:58:06;36.00;34.30
25741;DHT22;13592;50.838;4.412;2022-07-18T12:00:32;36.00;31.40
25741;DHT22;13592;50.838;4.412;2022-07-18T12:03:08;35.70;31.50
25741;DHT22;13592;50.838;4.412;2022-07-18T12:05:36;35.80;29.40
25741;DHT22;13592;50.838;4.412;2022-07-18T12:08:23;35.70;32.90
25741;DHT22;13592;50.838;4.412;2022-07-18T12:13:43;35.20;31.90
25741;DHT22;13592;50.838;4.412;2022-07-18T12:18:51;35.10;34.00
25741;DHT22;13592;50.838;4.412;2022-07-18T12:21:17;35.00;31.20
25741;DHT22;13592;50.838;4.412;2022-07-18T12:23:42;34.80;30.90
25741;DHT22;13592;50.838;4.412;2022-07-18T12:26:08;34.70;31.80
25741;DHT22;13592;50.838;4.412;2022-07-18T12:28:33;34.60;31.80
25741;DHT22;13592;50.838;4.412;2022-07-18T12:30:59;34.60;30.70
25741;DHT22;13592;50.838;4.412;2022-07-18T12:33:26;34.50;30.60
25741;DHT22;13592;50.838;4.412;2022-07-18T12:35:58;34.50;32.70
25741;DHT22;13592;50.838;4.412;2022-07-18T12:38:24;34.50;34.70
25741;DHT22;13592;50.838;4.412;2022-07-18T12:40:51;34.30;33.00
25741;DHT22;13592;50.838;4.412;2022-07-18T12:43:25;34.50;32.30
25741;DHT22;13592;50.838;4.412;2022-07-18T12:45:54;34.60;31.30
25741;DHT22;13592;50.838;4.412;2022-07-18T12:48:20;34.30;31.50
25741;DHT22;13592;50.838;4.412;2022-07-18T12:50:46;34.50;30.60
25741;DHT22;13592;50.838;4.412;2022-07-18T12:53:21;34.40;31.00
25741;DHT22;13592;50.838;4.412;2022-07-18T12:55:47;34.30;30.80
25741;DHT22;13592;50.838;4.412;2022-07-18T12:58:13;34.40;31.10
25741;DHT22;13592;50.838;4.412;2022-07-18T13:00:38;34.40;29.80
25741;DHT22;13592;50.838;4.412;2022-07-18T13:03:04;34.30;30.40
25741;DHT22;13592;50.838;4.412;2022-07-18T13:05:30;34.30;31.20
25741;DHT22;13592;50.838;4.412;2022-07-18T13:07:56;34.40;32.40
25741;DHT22;13592;50.838;4.412;2022-07-18T13:10:21;34.50;30.30
25741;DHT22;13592;50.838;4.412;2022-07-18T13:12:47;34.40;31.20
25741;DHT22;13592;50.838;4.412;2022-07-18T13:15:13;34.10;31.40
25741;DHT22;13592;50.838;4.412;2022-07-18T13:17:39;34.00;31.80
25741;DHT22;13592;50.838;4.412;2022-07-18T13:20:05;34.00;34.60
25741;DHT22;13592;50.838;4.412;2022-07-18T13:22:32;34.00;33.50
25741;DHT22;13592;50.838;4.412;2022-07-18T13:25:06;34.00;33.10
25741;DHT22;13592;50.838;4.412;2022-07-18T13:27:32;33.80;34.50
25741;DHT22;13592;50.838;4.412;2022-07-18T13:29:57;33.90;34.40
25741;DHT22;13592;50.838;4.412;2022-07-18T13:32:23;34.00;33.10
25741;DHT22;13592;50.838;4.412;2022-07-18T13:34:48;34.10;35.10
25741;DHT22;13592;50.838;4.412;2022-07-18T13:37:15;34.40;31.40
25741;DHT22;13592;50.838;4.412;2022-07-18T13:39:40;34.30;32.30
25741;DHT22;13592;50.838;4.412;2022-07-18T13:42:06;34.20;33.10
25741;DHT22;13592;50.838;4.412;2022-07-18T13:44:31;34.40;33.30
25741;DHT22;13592;50.838;4.412;2022-07-18T13:46:57;34.30;31.20
25741;DHT22;13592;50.838;4.412;2022-07-18T13:49:22;34.30;32.00
25741;DHT22;13592;50.838;4.412;2022-07-18T13:51:48;34.30;32.30
25741;DHT22;13592;50.838;4.412;2022-07-18T13:54:13;34.40;33.60
25741;DHT22;13592;50.838;4.412;2022-07-18T13:56:42;34.30;33.10
25741;DHT22;13592;50.838;4.412;2022-07-18T13:59:08;34.20;35.20
25741;DHT22;13592;50.838;4.412;2022-07-18T14:01:34;34.10;34.60
25741;DHT22;13592;50.838;4.412;2022-07-18T14:04:00;34.10;32.80
25741;DHT22;13592;50.838;4.412;2022-07-18T14:06:25;34.00;33.30
25741;DHT22;13592;50.838;4.412;2022-07-18T14:08:51;34.20;31.20
25741;DHT22;13592;50.838;4.412;2022-07-18T14:11:16;34.20;31.30
25741;DHT22;13592;50.838;4.412;2022-07-18T14:13:42;34.20;31.30
25741;DHT22;13592;50.838;4.412;2022-07-18T14:16:07;34.10;33.70
25741;DHT22;13592;50.838;4.412;2022-07-18T14:18:33;34.10;32.50
25741;DHT22;13592;50.838;4.412;2022-07-18T14:20:58;34.00;34.20
25741;DHT22;13592;50.838;4.412;2022-07-18T14:23:24;33.90;33.60
25741;DHT22;13592;50.838;4.412;2022-07-18T14:25:49;34.10;33.10
25741;DHT22;13592;50.838;4.412;2022-07-18T14:28:15;34.30;30.90
25741;DHT22;13592;50.838;4.412;2022-07-18T14:30:40;34.40;32.40
25741;DHT22;13592;50.838;4.412;2022-07-18T14:33:06;34.40;32.00
25741;DHT22;13592;50.838;4.412;2022-07-18T14:35:31;34.60;32.60
25741;DHT22;13592;50.838;4.412;2022-07-18T14:37:57;34.60;31.60
25741;DHT22;13592;50.838;4.412;2022-07-18T14:40:23;34.50;33.40
25741;DHT22;13592;50.838;4.412;2022-07-18T14:42:49;34.40;33.20
25741;DHT22;13592;50.838;4.412;2022-07-18T14:45:17;34.30;32.40
25741;DHT22;13592;50.838;4.412;2022-07-18T14:47:43;34.30;34.00
25741;DHT22;13592;50.838;4.412;2022-07-18T14:50:08;34.50;32.30
25741;DHT22;13592;50.838;4.412;2022-07-18T14:52:36;34.30;34.60
25741;DHT22;13592;50.838;4.412;2022-07-18T14:55:03;34.40;33.10
25741;DHT22;13592;50.838;4.412;2022-07-18T14:57:28;34.50;32.50
25741;DHT22;13592;50.838;4.412;2022-07-18T14:59:54;34.60;31.70
25741;DHT22;13592;50.838;4.412;2022-07-18T15:02:19;34.40;32.20
25741;DHT22;13592;50.838;4.412;2022-07-18T15:04:45;34.20;35.50
25741;DHT22;13592;50.838;4.412;2022-07-18T15:07:10;34.10;32.80
25741;DHT22;13592;50.838;4.412;2022-07-18T15:09:36;34.00;36.10
25741;DHT22;13592;50.838;4.412;2022-07-18T15:12:03;34.00;33.30
25741;DHT22;13592;50.838;4.412;2022-07-18T15:14:28;34.10;32.80
25741;DHT22;13592;50.838;4.412;2022-07-18T15:16:54;34.30;32.50
25741;DHT22;13592;50.838;4.412;2022-07-18T15:19:20;34.40;32.00
25741;DHT22;13592;50.838;4.412;2022-07-18T15:21:46;34.50;32.10
25741;DHT22;13592;50.838;4.412;2022-07-18T15:24:11;34.50;32.60
25741;DHT22;13592;50.838;4.412;2022-07-18T15:26:37;34.60;32.00
25741;DHT22;13592;50.838;4.412;2022-07-18T15:29:03;34.50;34.40
25741;DHT22;13592;50.838;4.412;2022-07-18T15:31:28;34.20;36.30
25741;DHT22;13592;50.838;4.412;2022-07-18T15:33:56;34.10;38.00
25741;DHT22;13592;50.838;4.412;2022-07-18T15:36:21;34.00;36.70
25741;DHT22;13592;50.838;4.412;2022-07-18T15:38:47;34.00;38.30
25741;DHT22;13592;50.838;4.412;2022-07-18T15:41:12;34.30;33.50
25741;DHT22;13592;50.838;4.412;2022-07-18T15:43:39;33.90;34.00
25741;DHT22;13592;50.838;4.412;2022-07-18T15:46:04;33.70;36.00
25741;DHT22;13592;50.838;4.412;2022-07-18T15:48:30;33.70;37.30
25741;DHT22;13592;50.838;4.412;2022-07-18T15:50:56;33.60;36.60
25741;DHT22;13592;50.838;4.412;2022-07-18T15:53:21;33.70;39.10
25741;DHT22;13592;50.838;4.412;2022-07-18T15:55:47;33.70;33.80